createdAt,value
2018-07-12T09:57:16.522Z,21.98
2018-07-12T09:58:16.483Z,22.30
2018-07-12T09:59:16.466Z,22.83
2018-07-12T10:00:16.456Z,23.07
2018-07-12T10:01:16.532Z,23.25
2018-07-12T10:02:16.425Z,23.13
2018-07-12T10:03:16.418Z,22.77
2018-07-12T10:04:16.394Z,22.73
2018-07-12T10:05:16.378Z,22.80
2018-07-12T10:06:16.365Z,22.92
2018-07-12T10:07:16.354Z,22.91
2018-07-12T10:08:16.351Z,22.77
2018-07-12T10:09:16.325Z,22.92
2018-07-12T10:10:16.313Z,22.68
2018-07-12T10:11:16.300Z,22.80
2018-07-12T10:12:16.290Z,22.90
2018-07-12T10:13:16.284Z,23.04
2018-07-12T10:14:16.262Z,23.13
2018-07-12T10:15:16.252Z,22.94
2018-07-12T10:16:16.248Z,23.20
2018-07-12T10:17:16.226Z,23.38
2018-07-12T10:18:16.222Z,23.58
2018-07-12T10:19:16.201Z,23.87
2018-07-12T10:20:16.188Z,23.73
2018-07-12T10:21:16.177Z,23.61
2018-07-12T10:22:16.166Z,23.33
2018-07-12T10:23:16.173Z,23.12
2018-07-12T10:24:16.141Z,22.92
2018-07-12T10:25:16.129Z,22.91
2018-07-12T10:26:16.120Z,22.94
2018-07-12T10:27:16.107Z,22.70
2018-07-12T10:28:16.097Z,22.97
2018-07-12T10:29:16.094Z,22.60
2018-07-12T10:30:16.073Z,22.52
2018-07-12T10:31:16.061Z,22.94
2018-07-12T10:32:16.048Z,23.09
2018-07-12T10:33:16.041Z,22.95
2018-07-12T10:34:16.044Z,23.10
2018-07-12T10:35:16.017Z,23.68
2018-07-12T10:36:16.005Z,23.54
2018-07-12T10:37:15.991Z,23.73
2018-07-12T10:38:15.981Z,23.32
2018-07-12T10:39:15.970Z,23.09
2018-07-12T10:40:15.978Z,23.01
2018-07-12T10:41:15.948Z,23.07
2018-07-12T10:42:15.937Z,23.20
2018-07-12T10:43:15.925Z,22.79
2018-07-12T10:44:15.913Z,23.04
2018-07-12T10:45:15.902Z,23.15
2018-07-12T10:46:15.901Z,23.10
2018-07-12T10:47:15.883Z,23.20
2018-07-12T10:48:15.868Z,23.54
2018-07-12T10:49:15.857Z,24.15
2018-07-12T10:50:15.847Z,24.15
2018-07-12T10:51:15.845Z,23.28
2018-07-12T10:52:15.825Z,22.98
2018-07-12T10:53:15.810Z,22.76
2018-07-12T10:54:15.801Z,22.40
2018-07-12T10:55:15.791Z,22.57
2018-07-12T10:56:15.778Z,22.75
2018-07-12T10:57:15.785Z,23.04
2018-07-12T10:58:15.755Z,23.38
2018-07-12T10:59:15.744Z,23.01
2018-07-12T11:00:15.736Z,23.53
2018-07-12T11:01:15.720Z,23.79
2018-07-12T11:02:15.710Z,24.13
2018-07-12T11:03:15.708Z,24.25
2018-07-12T11:04:15.690Z,23.55
2018-07-12T11:05:15.674Z,23.47
2018-07-12T11:06:15.665Z,23.93
2018-07-12T11:07:15.653Z,24.57
2018-07-12T11:08:15.657Z,25.30
2018-07-12T11:09:15.631Z,25.35
2018-07-12T11:10:15.622Z,25.43
2018-07-12T11:11:15.612Z,24.84
2018-07-12T11:12:15.597Z,24.46
2018-07-12T11:13:15.585Z,23.78
2018-07-12T11:14:15.585Z,23.43
2018-07-12T11:15:15.565Z,23.09
2018-07-12T11:16:15.552Z,23.12
2018-07-12T11:17:15.546Z,23.61
2018-07-12T11:18:15.529Z,23.38
2018-07-12T11:19:15.539Z,23.68
2018-07-12T11:20:15.508Z,23.70
2018-07-12T11:21:15.586Z,23.72
2018-07-12T11:22:15.486Z,23.66
2018-07-12T11:23:15.474Z,24.32
2018-07-12T11:24:15.463Z,25.55
2018-07-12T11:25:15.463Z,26.26
2018-07-12T11:26:15.440Z,25.51
2018-07-12T11:27:15.431Z,25.75
2018-07-12T11:28:15.470Z,25.76
2018-07-12T11:29:15.406Z,25.73
2018-07-12T11:30:15.436Z,26.12
2018-07-12T11:31:15.398Z,26.28
2018-07-12T11:32:15.380Z,26.36
2018-07-12T11:33:15.364Z,27.24
2018-07-12T11:34:15.347Z,27.00
2018-07-12T11:35:15.350Z,27.41
2018-07-12T11:36:15.362Z,27.60
2018-07-12T11:37:15.324Z,27.28
2018-07-12T11:38:15.310Z,27.14
2018-07-12T11:39:15.300Z,27.21
2018-07-12T11:40:15.290Z,27.62
2018-07-12T11:41:15.297Z,27.88
2018-07-12T11:42:15.270Z,27.66
2018-07-12T11:43:15.259Z,27.72
2018-07-12T11:44:15.250Z,27.57
2018-07-12T11:45:15.240Z,27.09
2018-07-12T11:46:15.230Z,26.13
2018-07-12T11:47:15.237Z,25.21
2018-07-12T11:48:15.210Z,24.80
2018-07-12T11:49:15.201Z,24.52
2018-07-12T11:50:15.189Z,24.57
2018-07-12T11:51:15.181Z,24.34
2018-07-12T11:52:15.169Z,23.95
2018-07-12T11:53:15.177Z,23.70
2018-07-12T11:54:15.155Z,25.28
2018-07-12T11:55:15.140Z,25.17
2018-07-12T11:56:15.129Z,24.83
2018-07-12T11:57:15.118Z,25.42
2018-07-12T11:58:15.123Z,25.47
2018-07-12T11:59:15.096Z,26.17
2018-07-12T12:00:15.088Z,26.51
2018-07-12T12:01:15.077Z,26.37
2018-07-12T12:02:15.066Z,25.72
2018-07-12T12:03:15.056Z,25.64
2018-07-12T12:04:15.072Z,25.43
2018-07-12T12:05:15.035Z,25.39
2018-07-12T12:06:15.026Z,24.77
2018-07-12T12:07:15.020Z,26.06
2018-07-12T12:08:15.004Z,27.09
2018-07-12T12:09:15.012Z,27.82
2018-07-12T12:10:14.984Z,28.22
2018-07-12T12:11:14.972Z,28.81
2018-07-12T12:12:14.972Z,28.25
2018-07-12T12:13:14.954Z,26.28
2018-07-12T12:14:14.942Z,25.94
2018-07-12T12:15:14.946Z,25.97
2018-07-12T12:16:14.922Z,26.36
2018-07-12T12:17:14.911Z,26.60
2018-07-12T12:18:14.900Z,27.31
2018-07-12T12:19:14.892Z,27.92
2018-07-12T12:20:14.897Z,28.59
2018-07-12T12:21:14.870Z,28.70
2018-07-12T12:22:14.862Z,28.92
2018-07-12T12:23:14.851Z,28.83
2018-07-12T12:24:14.840Z,29.48
2018-07-12T12:25:14.830Z,29.09
2018-07-12T12:26:14.829Z,27.99
2018-07-12T12:27:14.810Z,28.40
2018-07-12T12:28:14.799Z,28.61
2018-07-12T12:29:14.790Z,28.46
2018-07-12T12:30:14.779Z,27.99
2018-07-12T12:31:14.779Z,28.51
2018-07-12T12:32:14.763Z,28.00
2018-07-12T12:33:14.754Z,27.34
2018-07-12T12:34:14.741Z,27.39
2018-07-12T12:35:14.729Z,27.10
2018-07-12T12:36:14.737Z,27.22
2018-07-12T12:37:14.709Z,28.21
2018-07-12T12:38:14.700Z,27.24
2018-07-12T12:39:14.691Z,27.93
2018-07-12T12:40:14.685Z,28.25
2018-07-12T12:41:14.671Z,28.78
2018-07-12T12:42:14.680Z,28.58
2018-07-12T12:43:14.654Z,28.03
2018-07-12T12:44:14.647Z,27.51
2018-07-12T12:45:14.634Z,28.31
2018-07-12T12:46:14.626Z,29.14
2018-07-12T12:47:14.631Z,29.87
2018-07-12T12:48:14.606Z,29.51
2018-07-12T12:49:14.597Z,30.17
2018-07-12T12:50:14.588Z,29.97
2018-07-12T12:51:14.578Z,30.29
2018-07-12T12:52:14.570Z,29.42
2018-07-12T12:53:14.572Z,28.85
2018-07-12T12:54:14.551Z,27.79
2018-07-12T12:55:14.544Z,27.67
2018-07-12T12:56:14.533Z,27.06
2018-07-12T12:57:14.523Z,26.25
2018-07-12T12:58:14.534Z,26.21
2018-07-12T12:59:14.505Z,26.02
2018-07-12T13:00:14.521Z,26.44
2018-07-12T13:01:14.486Z,26.43
2018-07-12T13:02:14.477Z,26.54
2018-07-12T13:03:14.469Z,26.01
2018-07-12T13:04:14.469Z,26.87
2018-07-12T13:05:14.450Z,27.51
2018-07-12T13:06:14.441Z,28.09
2018-07-12T13:07:14.434Z,27.46
2018-07-12T13:08:14.422Z,27.44
2018-07-12T13:09:14.430Z,27.43
2018-07-12T13:10:14.408Z,28.64
2018-07-12T13:11:14.414Z,29.16
2018-07-12T13:12:14.387Z,28.25
2018-07-12T13:13:14.376Z,27.69
2018-07-12T13:14:14.367Z,26.87
2018-07-12T13:15:14.381Z,26.06
2018-07-12T13:16:14.351Z,27.14
2018-07-12T13:17:14.341Z,27.60
2018-07-12T13:18:14.332Z,28.48
2018-07-12T13:19:14.323Z,29.37
2018-07-12T13:20:14.317Z,27.94
2018-07-12T13:21:14.319Z,27.79
2018-07-12T13:22:14.298Z,28.52
2018-07-12T13:23:14.289Z,28.36
2018-07-12T13:24:14.281Z,27.99
2018-07-12T13:25:14.272Z,29.06
2018-07-12T13:26:14.280Z,30.05
2018-07-12T13:27:14.256Z,30.17
2018-07-12T13:28:14.247Z,30.54
2018-07-12T13:29:14.238Z,30.62
2018-07-12T13:30:14.230Z,30.22
2018-07-12T13:31:14.229Z,30.43
2018-07-12T13:32:14.226Z,30.45
2018-07-12T13:33:14.207Z,30.37
2018-07-12T13:34:14.199Z,30.45
2018-07-12T13:35:14.193Z,30.60
2018-07-12T13:36:14.185Z,31.09
2018-07-12T13:37:14.192Z,31.01
2018-07-12T13:38:14.169Z,31.69
2018-07-12T13:39:14.162Z,32.44
2018-07-12T13:40:14.157Z,32.94
2018-07-12T13:41:14.147Z,31.32
2018-07-12T13:42:14.143Z,31.54
2018-07-12T13:43:14.143Z,31.85
2018-07-12T13:44:14.126Z,31.66
2018-07-12T13:45:14.117Z,32.55
2018-07-12T13:46:14.112Z,32.62
2018-07-12T13:47:14.107Z,32.41
2018-07-12T13:48:14.125Z,32.60
2018-07-12T13:49:14.099Z,31.78
2018-07-12T13:50:14.087Z,29.53
2018-07-12T13:51:14.083Z,28.44
2018-07-12T13:52:14.113Z,27.46
2018-07-12T13:53:14.067Z,27.06
2018-07-12T13:54:14.077Z,26.57
2018-07-12T13:55:14.055Z,26.44
2018-07-12T13:56:14.047Z,25.51
2018-07-12T13:57:14.040Z,25.42
2018-07-12T13:58:14.038Z,25.54
2018-07-12T13:59:14.044Z,25.70
2018-07-12T14:00:14.026Z,25.79
2018-07-12T14:01:14.025Z,26.09
2018-07-12T14:02:14.000Z,26.28
2018-07-12T14:03:13.999Z,27.12
2018-07-12T14:04:13.989Z,27.88
2018-07-12T14:05:13.988Z,28.73
2018-07-12T14:06:13.971Z,30.05
2018-07-12T14:07:13.967Z,30.80
2018-07-12T14:08:13.956Z,31.57
2018-07-12T14:09:13.947Z,30.29
2018-07-12T14:10:13.961Z,29.28
2018-07-12T14:11:13.932Z,28.24
2018-07-12T14:12:13.924Z,27.69
2018-07-12T14:13:13.915Z,27.57
2018-07-12T14:14:13.910Z,27.87
2018-07-12T14:15:13.900Z,29.53
2018-07-12T14:16:13.903Z,29.98
2018-07-12T14:17:13.885Z,30.29
2018-07-12T14:18:13.878Z,30.20
2018-07-12T14:19:13.870Z,30.91
2018-07-12T14:20:13.862Z,31.53
2018-07-12T14:21:13.877Z,31.65
2018-07-12T14:22:13.847Z,31.29
2018-07-12T14:23:13.842Z,31.06
2018-07-12T14:24:13.833Z,31.02
2018-07-12T14:25:13.826Z,31.84
2018-07-12T14:26:13.818Z,30.27
2018-07-12T14:27:13.880Z,29.51
2018-07-12T14:28:13.806Z,28.96
2018-07-12T14:29:13.798Z,28.54
2018-07-12T14:30:13.792Z,27.96
2018-07-12T14:31:13.786Z,27.54
2018-07-12T14:32:13.799Z,27.60
2018-07-12T14:33:13.771Z,28.58
2018-07-12T14:34:13.768Z,28.12
2018-07-12T14:35:13.758Z,29.42
2018-07-12T14:36:13.750Z,29.90
2018-07-12T14:37:13.744Z,30.02
2018-07-12T14:38:13.745Z,29.68
2018-07-12T14:39:13.729Z,29.33
2018-07-12T14:40:13.722Z,29.85
2018-07-12T14:41:13.714Z,30.20
2018-07-12T14:42:13.708Z,30.77
2018-07-12T14:43:13.720Z,30.54
2018-07-12T14:44:13.700Z,31.06
2018-07-12T14:45:13.690Z,30.92
2018-07-12T14:46:13.684Z,30.54
2018-07-12T14:47:13.681Z,31.46
2018-07-12T14:48:13.669Z,31.16
2018-07-12T14:49:13.683Z,31.16
2018-07-12T14:50:13.661Z,31.06
2018-07-12T14:51:13.654Z,29.92
2018-07-12T14:52:13.650Z,27.88
2018-07-12T14:53:13.644Z,26.63
2018-07-12T14:54:13.637Z,26.23
2018-07-12T14:55:13.642Z,25.98
2018-07-12T14:56:13.625Z,26.02
2018-07-12T14:57:13.621Z,26.09
2018-07-12T14:58:13.613Z,26.06
2018-07-12T14:59:13.608Z,25.97
2018-07-12T15:00:13.618Z,25.87
2018-07-12T15:01:13.592Z,26.06
2018-07-12T15:02:13.587Z,25.43
2018-07-12T15:03:13.577Z,25.42
2018-07-12T15:04:13.569Z,25.17
2018-07-12T15:05:13.561Z,25.09
2018-07-12T15:06:13.564Z,24.99
2018-07-12T15:07:13.548Z,25.06
2018-07-12T15:08:13.538Z,25.10
2018-07-12T15:09:13.679Z,25.09
2018-07-12T15:10:13.519Z,25.03
2018-07-12T15:11:13.534Z,25.02
2018-07-12T15:12:13.503Z,24.81
2018-07-12T15:13:13.501Z,24.81
2018-07-12T15:14:13.484Z,24.81
2018-07-12T15:15:13.475Z,24.81
2018-07-12T15:16:13.465Z,24.84
2018-07-12T15:17:13.468Z,24.71
2018-07-12T15:18:13.448Z,24.78
2018-07-12T15:19:13.462Z,24.85
2018-07-12T15:20:13.432Z,24.81
2018-07-12T15:21:13.420Z,24.81
2018-07-12T15:22:13.427Z,24.84
2018-07-12T15:23:13.397Z,24.98
2018-07-12T15:24:13.389Z,24.98
2018-07-12T15:25:13.380Z,24.95
2018-07-12T15:26:13.422Z,24.99
2018-07-12T15:27:13.356Z,25.03
2018-07-12T15:28:13.359Z,25.02
2018-07-12T15:29:13.378Z,25.54
2018-07-12T15:30:13.327Z,26.88
2018-07-12T15:31:13.318Z,27.75
2018-07-12T15:32:13.309Z,28.67
2018-07-12T15:33:13.319Z,27.49
2018-07-12T15:34:13.290Z,27.60
2018-07-12T15:35:13.279Z,28.06
2018-07-12T15:36:13.269Z,28.85
2018-07-12T15:37:13.260Z,29.23
2018-07-12T15:38:13.251Z,30.24
2018-07-12T15:39:13.251Z,31.20
2018-07-12T15:40:13.234Z,30.46
2018-07-12T15:41:13.224Z,29.73
2018-07-12T15:42:13.220Z,29.51
2018-07-12T15:43:13.210Z,30.65
2018-07-12T15:44:13.220Z,30.19
2018-07-12T15:45:13.194Z,31.20
2018-07-12T15:46:13.187Z,30.57
2018-07-12T15:47:13.186Z,30.26
2018-07-12T15:48:13.171Z,30.79
2018-07-12T15:49:13.164Z,30.67
2018-07-12T15:50:13.224Z,30.07
2018-07-12T15:51:13.152Z,30.65
2018-07-12T15:52:13.146Z,29.05
2018-07-12T15:53:13.140Z,28.62
2018-07-12T15:54:13.136Z,28.48
2018-07-12T15:55:13.145Z,28.19
2018-07-12T15:56:13.123Z,29.18
2018-07-12T15:57:13.116Z,28.85
2018-07-12T15:58:13.111Z,28.88
2018-07-12T15:59:13.104Z,29.21
2018-07-12T16:00:13.099Z,29.85
2018-07-12T16:01:13.114Z,29.98
2018-07-12T16:02:13.165Z,30.84
2018-07-12T16:03:13.082Z,31.01
2018-07-12T16:04:13.077Z,30.88
2018-07-12T16:05:13.069Z,30.47
2018-07-12T16:06:13.067Z,31.16
2018-07-12T16:07:13.070Z,31.43
2018-07-12T16:08:13.055Z,31.65
2018-07-12T16:09:13.051Z,31.53
2018-07-12T16:10:13.047Z,31.31
2018-07-12T16:11:13.040Z,30.05
2018-07-12T16:12:13.047Z,29.06
2018-07-12T16:13:13.030Z,29.51
2018-07-12T16:14:13.023Z,30.00
2018-07-12T16:15:13.020Z,30.37
2018-07-12T16:16:13.015Z,30.49
2018-07-12T16:17:13.032Z,30.31
2018-07-12T16:18:13.007Z,29.42
2018-07-12T16:19:12.999Z,29.78
2018-07-12T16:20:12.994Z,29.95
2018-07-12T16:21:12.991Z,30.34
2018-07-12T16:22:12.986Z,31.01
2018-07-12T16:23:12.993Z,30.88
2018-07-12T16:24:12.976Z,30.19
2018-07-12T16:25:12.971Z,31.32
2018-07-12T16:26:12.968Z,31.57
2018-07-12T16:27:12.962Z,32.00
2018-07-12T16:28:12.974Z,31.65
2018-07-12T16:29:12.954Z,31.56
2018-07-12T16:30:12.951Z,31.78
2018-07-12T16:31:12.947Z,30.86
2018-07-12T16:32:12.948Z,30.76
2018-07-12T16:33:12.949Z,30.47
2018-07-12T16:34:13.065Z,31.61
2018-07-12T16:35:12.933Z,32.07
2018-07-12T16:36:12.929Z,31.16
2018-07-12T16:37:12.962Z,30.38
2018-07-12T16:38:12.934Z,29.78
2018-07-12T16:39:12.921Z,29.21
2018-07-12T16:40:12.914Z,29.68
2018-07-12T16:41:12.910Z,30.05
2018-07-12T16:42:12.907Z,30.47
2018-07-12T16:43:12.913Z,30.31
2018-07-12T16:44:12.899Z,30.70
2018-07-12T16:45:12.897Z,30.38
2018-07-12T16:46:12.892Z,31.34
2018-07-12T16:47:12.890Z,30.80
2018-07-12T16:48:12.902Z,30.16
2018-07-12T16:49:12.882Z,30.70
2018-07-12T16:50:12.883Z,30.53
2018-07-12T16:51:12.874Z,31.38
2018-07-12T16:52:12.868Z,31.47
2018-07-12T16:53:12.876Z,31.72
2018-07-12T16:54:12.864Z,31.28
2018-07-12T16:55:12.860Z,31.58
2018-07-12T16:56:12.857Z,31.23
2018-07-12T16:57:12.855Z,31.02
2018-07-12T16:58:12.862Z,30.02
2018-07-12T16:59:12.849Z,30.32
2018-07-12T17:00:12.846Z,30.54
2018-07-12T17:01:12.840Z,31.16
2018-07-12T17:02:12.836Z,31.75
2018-07-12T17:03:12.846Z,30.49
2018-07-12T17:04:12.830Z,31.14
2018-07-12T17:05:12.827Z,30.62
2018-07-12T17:06:12.822Z,30.57
2018-07-12T17:07:12.877Z,30.98
2018-07-12T17:08:12.830Z,30.55
2018-07-12T17:09:12.814Z,29.23
2018-07-12T17:10:12.809Z,29.04
2018-07-12T17:11:12.806Z,29.67
2018-07-12T17:12:12.807Z,29.36
2018-07-12T17:13:12.808Z,29.89
2018-07-12T17:14:12.796Z,30.35
2018-07-12T17:15:12.794Z,30.35
2018-07-12T17:16:12.789Z,31.28
2018-07-12T17:17:12.786Z,31.34
2018-07-12T17:18:12.790Z,31.69
2018-07-12T17:19:12.782Z,31.61
2018-07-12T17:20:12.774Z,31.70
2018-07-12T17:21:12.769Z,31.96
2018-07-12T17:22:12.765Z,31.89
2018-07-12T17:23:12.772Z,29.61
2018-07-12T17:24:12.757Z,29.09
2018-07-12T17:25:12.753Z,28.58
2018-07-12T17:26:12.750Z,28.46
2018-07-12T17:27:12.782Z,28.30
2018-07-12T17:28:12.752Z,27.90
2018-07-12T17:29:12.737Z,27.97
2018-07-12T17:30:12.732Z,27.69
2018-07-12T17:31:12.726Z,27.62
2018-07-12T17:32:12.721Z,28.19
2018-07-12T17:33:12.732Z,28.33
2018-07-12T17:34:12.712Z,29.11
2018-07-12T17:35:12.708Z,29.79
2018-07-12T17:36:12.701Z,30.02
2018-07-12T17:37:12.694Z,29.45
2018-07-12T17:38:12.701Z,29.05
2018-07-12T17:39:12.683Z,29.45
2018-07-12T17:40:12.679Z,29.09
2018-07-12T17:41:12.794Z,28.41
2018-07-12T17:42:12.667Z,28.34
2018-07-12T17:43:12.674Z,28.74
2018-07-12T17:44:12.658Z,28.93
2018-07-12T17:45:12.649Z,29.24
2018-07-12T17:46:12.645Z,29.33
2018-07-12T17:47:12.689Z,29.39
2018-07-12T17:48:12.645Z,29.42
2018-07-12T17:49:12.628Z,29.36
2018-07-12T17:50:12.621Z,28.73
2018-07-12T17:51:12.616Z,28.89
2018-07-12T17:52:12.613Z,28.80
2018-07-12T17:53:12.613Z,28.73
2018-07-12T17:54:12.596Z,28.49
2018-07-12T17:55:12.591Z,28.31
2018-07-12T17:56:12.590Z,28.55
2018-07-12T17:57:12.580Z,28.41
2018-07-12T17:58:12.583Z,28.18
2018-07-12T17:59:12.567Z,27.88
2018-07-12T18:00:12.563Z,27.21
2018-07-12T18:01:12.550Z,26.87
2018-07-12T18:02:12.545Z,26.99
2018-07-12T18:03:12.546Z,26.87
2018-07-12T18:04:12.532Z,26.69
2018-07-12T18:05:12.613Z,26.67
2018-07-12T18:06:12.518Z,26.43
2018-07-12T18:07:12.507Z,26.25
2018-07-12T18:08:12.517Z,26.25
2018-07-12T18:09:12.494Z,26.21
2018-07-12T18:10:12.483Z,26.07
2018-07-12T18:11:12.475Z,25.92
2018-07-12T18:12:12.468Z,25.77
2018-07-12T18:13:12.461Z,25.77
2018-07-12T18:14:12.476Z,25.75
2018-07-12T18:15:12.441Z,25.67
2018-07-12T18:16:12.432Z,25.57
2018-07-12T18:17:12.423Z,25.54
2018-07-12T18:18:12.422Z,25.69
2018-07-12T18:19:12.417Z,25.82
2018-07-12T18:20:12.396Z,25.73
2018-07-12T18:21:12.390Z,25.79
2018-07-12T18:22:12.409Z,25.82
2018-07-12T18:23:12.370Z,25.90
2018-07-12T18:24:12.371Z,25.97
2018-07-12T18:25:12.354Z,26.01
2018-07-12T18:26:12.342Z,25.94
2018-07-12T18:27:12.334Z,25.99
2018-07-12T18:28:12.324Z,25.80
2018-07-12T18:29:12.322Z,25.76
2018-07-12T18:30:12.300Z,25.65
2018-07-12T18:31:12.291Z,25.65
2018-07-12T18:32:12.283Z,25.69
2018-07-12T18:33:12.272Z,25.61
2018-07-12T18:34:12.283Z,25.61
2018-07-12T18:35:12.323Z,25.62
2018-07-12T18:36:12.244Z,25.47
2018-07-12T18:37:12.233Z,25.57
2018-07-12T18:38:12.242Z,25.55
2018-07-12T18:39:12.223Z,25.28
2018-07-12T18:40:12.207Z,25.17
2018-07-12T18:41:12.192Z,25.17
2018-07-12T18:42:12.182Z,24.98
2018-07-12T18:43:12.171Z,24.95
2018-07-12T18:44:12.172Z,25.00
2018-07-12T18:45:12.153Z,24.95
2018-07-12T18:46:12.145Z,24.76
2018-07-12T18:47:12.130Z,24.71
2018-07-12T18:48:12.120Z,24.65
2018-07-12T18:49:12.119Z,24.58
2018-07-12T18:50:12.100Z,24.52
2018-07-12T18:51:12.088Z,24.47
2018-07-12T18:52:12.078Z,24.49
2018-07-12T18:53:12.066Z,24.47
2018-07-12T18:54:12.066Z,24.42
2018-07-12T18:55:12.046Z,24.24
2018-07-12T18:56:12.035Z,24.13
2018-07-12T18:57:12.078Z,24.24
2018-07-12T18:58:12.015Z,24.15
2018-07-12T18:59:12.017Z,24.10
2018-07-12T19:00:11.990Z,24.05
2018-07-12T19:01:11.979Z,23.90
2018-07-12T19:02:11.967Z,23.85
2018-07-12T19:03:11.956Z,23.70
2018-07-12T19:04:11.959Z,23.60
2018-07-12T19:05:11.934Z,23.48
2018-07-12T19:06:11.922Z,23.43
2018-07-12T19:07:11.913Z,23.39
2018-07-12T19:08:11.899Z,23.32
2018-07-12T19:09:11.899Z,23.27
2018-07-12T19:10:11.876Z,23.15
2018-07-12T19:11:11.864Z,23.12
2018-07-12T19:12:11.855Z,23.01
2018-07-12T19:13:11.841Z,23.04
2018-07-12T19:14:11.839Z,23.10
2018-07-12T19:15:11.915Z,23.01
2018-07-12T19:16:11.806Z,22.97
2018-07-12T19:17:11.798Z,23.02
2018-07-12T19:18:11.781Z,23.00
2018-07-12T19:19:11.782Z,22.92
2018-07-12T19:20:11.760Z,22.82
2018-07-12T19:21:11.745Z,22.70
2018-07-12T19:22:11.736Z,22.58
2018-07-12T19:23:11.723Z,22.52
2018-07-12T19:24:11.720Z,22.45
2018-07-12T19:25:11.700Z,22.40
2018-07-12T19:26:11.685Z,22.39
2018-07-12T19:27:11.672Z,22.45
2018-07-12T19:28:11.661Z,22.31
2018-07-12T19:29:11.665Z,22.30
2018-07-12T19:30:11.636Z,22.24
2018-07-12T19:31:11.622Z,22.21
2018-07-12T19:32:11.611Z,22.27
2018-07-12T19:33:11.597Z,22.22
2018-07-12T19:34:11.634Z,22.20
2018-07-12T19:35:11.788Z,22.20
2018-07-12T19:36:11.562Z,22.24
2018-07-12T19:37:11.550Z,22.22
2018-07-12T19:38:11.534Z,22.14
2018-07-12T19:39:11.537Z,22.12
2018-07-12T19:40:11.568Z,22.02
2018-07-12T19:41:11.499Z,21.98
2018-07-12T19:42:11.479Z,21.91
2018-07-12T19:43:11.471Z,21.88
2018-07-12T19:44:11.469Z,21.88
2018-07-12T19:45:11.449Z,21.86
2018-07-12T19:46:11.432Z,21.99
2018-07-12T19:47:11.489Z,22.00
2018-07-12T19:48:11.408Z,21.77
2018-07-12T19:49:11.404Z,21.71
2018-07-12T19:50:11.380Z,21.67
2018-07-12T19:51:11.369Z,21.68
2018-07-12T19:52:11.357Z,21.62
2018-07-12T19:53:11.341Z,21.56
2018-07-12T19:54:11.341Z,21.50
2018-07-12T19:55:11.316Z,21.47
2018-07-12T19:56:11.303Z,21.40
2018-07-12T19:57:11.290Z,21.42
2018-07-12T19:58:11.276Z,21.29
2018-07-12T19:59:11.275Z,21.28
2018-07-12T20:00:11.288Z,21.28
2018-07-12T20:01:11.254Z,21.25
2018-07-12T20:02:11.224Z,21.29
2018-07-12T20:03:11.212Z,21.25
2018-07-12T20:04:11.210Z,21.24
2018-07-12T20:05:11.186Z,21.21
2018-07-12T20:06:11.170Z,21.17
2018-07-12T20:07:11.158Z,21.17
2018-07-12T20:08:11.143Z,21.27
2018-07-12T20:09:11.140Z,21.27
2018-07-12T20:10:11.127Z,21.24
2018-07-12T20:11:11.104Z,21.22
2018-07-12T20:12:11.091Z,21.27
2018-07-12T20:13:11.076Z,21.27
2018-07-12T20:14:11.073Z,21.29
2018-07-12T20:15:11.052Z,21.17
2018-07-12T20:16:11.040Z,21.25
2018-07-12T20:17:11.023Z,21.16
2018-07-12T20:18:11.010Z,21.19
2018-07-12T20:19:11.008Z,21.09
2018-07-12T20:20:10.983Z,21.13
2018-07-12T20:21:10.969Z,21.09
2018-07-12T20:22:10.959Z,21.10
2018-07-12T20:23:10.945Z,21.13
2018-07-12T20:24:10.943Z,21.10
2018-07-12T20:25:10.943Z,21.09
2018-07-12T20:26:10.910Z,21.06
2018-07-12T20:27:10.889Z,21.24
2018-07-12T20:28:10.881Z,21.29
2018-07-12T20:29:10.872Z,21.22
2018-07-12T20:30:10.848Z,21.28
2018-07-12T20:31:10.904Z,21.32
2018-07-12T20:32:10.820Z,21.29
2018-07-12T20:33:10.806Z,21.24
2018-07-12T20:34:10.804Z,21.27
2018-07-12T20:35:10.779Z,21.29
2018-07-12T20:36:10.767Z,21.22
2018-07-12T20:37:10.752Z,21.17
2018-07-12T20:38:10.738Z,21.16
2018-07-12T20:39:10.735Z,21.21
2018-07-12T20:40:10.708Z,21.17
2018-07-12T20:41:10.701Z,21.10
2018-07-12T20:42:10.682Z,21.07
2018-07-12T20:43:10.670Z,21.06
2018-07-12T20:44:10.667Z,21.01
2018-07-12T20:45:10.640Z,20.94
2018-07-12T20:46:10.628Z,20.97
2018-07-12T20:47:10.618Z,20.98
2018-07-12T20:48:10.640Z,20.99
2018-07-12T20:49:10.599Z,20.95
2018-07-12T20:50:10.643Z,20.95
2018-07-12T20:51:10.559Z,20.95
2018-07-12T20:52:10.544Z,20.99
2018-07-12T20:53:10.529Z,21.03
2018-07-12T20:54:10.527Z,21.04
2018-07-12T20:55:10.593Z,21.07
2018-07-12T20:56:10.490Z,21.03
2018-07-12T20:57:10.474Z,21.12
2018-07-12T20:58:10.460Z,21.03
2018-07-12T20:59:10.457Z,21.04
2018-07-12T21:00:10.434Z,20.92
2018-07-12T21:01:10.418Z,20.91
2018-07-12T21:02:10.406Z,20.91
2018-07-12T21:03:10.391Z,20.82
2018-07-12T21:04:10.388Z,20.84
2018-07-12T21:05:10.361Z,20.80
2018-07-12T21:06:10.348Z,20.72
2018-07-12T21:07:10.353Z,20.72
2018-07-12T21:08:10.323Z,20.74
2018-07-12T21:09:10.317Z,20.76
2018-07-12T21:10:10.294Z,20.79
2018-07-12T21:11:10.279Z,20.72
2018-07-12T21:12:10.265Z,20.64
2018-07-12T21:13:10.250Z,20.69
2018-07-12T21:14:10.248Z,20.61
2018-07-12T21:15:10.221Z,20.58
2018-07-12T21:16:10.209Z,20.57
2018-07-12T21:17:10.194Z,20.43
2018-07-12T21:18:10.181Z,20.42
2018-07-12T21:19:10.177Z,20.39
2018-07-12T21:20:10.151Z,20.35
2018-07-12T21:21:10.137Z,20.36
2018-07-12T21:22:10.125Z,20.38
2018-07-12T21:23:10.110Z,20.31
2018-07-12T21:24:10.106Z,20.26
2018-07-12T21:25:10.082Z,20.23
2018-07-12T21:26:10.069Z,20.18
2018-07-12T21:27:10.053Z,20.20
2018-07-12T21:28:10.039Z,20.14
2018-07-12T21:29:10.035Z,20.16
2018-07-12T21:30:10.013Z,20.10
2018-07-12T21:31:09.996Z,20.05
2018-07-12T21:32:09.990Z,20.16
2018-07-12T21:33:10.037Z,20.14
2018-07-12T21:34:09.964Z,20.23
2018-07-12T21:35:09.941Z,20.28
2018-07-12T21:36:09.924Z,20.33
2018-07-12T21:37:09.912Z,20.33
2018-07-12T21:38:09.895Z,20.33
2018-07-12T21:39:09.891Z,20.16
2018-07-12T21:40:09.867Z,20.10
2018-07-12T21:41:09.852Z,19.95
2018-07-12T21:42:09.842Z,19.96
2018-07-12T21:43:09.824Z,19.83
2018-07-12T21:44:09.821Z,19.78
2018-07-12T21:45:09.794Z,19.76
2018-07-12T21:46:09.781Z,19.68
2018-07-12T21:47:09.766Z,19.73
2018-07-12T21:48:09.752Z,19.66
2018-07-12T21:49:09.748Z,19.56
2018-07-12T21:50:09.722Z,19.54
2018-07-12T21:51:09.709Z,19.47
2018-07-12T21:52:09.695Z,19.36
2018-07-12T21:53:09.681Z,19.25
2018-07-12T21:54:09.676Z,19.19
2018-07-12T21:55:09.662Z,19.19
2018-07-12T21:56:09.638Z,19.11
2018-07-12T21:57:09.630Z,19.07
2018-07-12T21:58:09.606Z,18.95
2018-07-12T21:59:09.602Z,18.99
2018-07-12T22:00:09.577Z,18.94
2018-07-12T22:01:09.560Z,18.91
2018-07-12T22:02:09.549Z,18.90
2018-07-12T22:03:09.533Z,18.92
2018-07-12T22:04:09.527Z,18.85
2018-07-12T22:05:09.504Z,18.85
2018-07-12T22:06:09.491Z,18.84
2018-07-12T22:07:09.475Z,18.82
2018-07-12T22:08:09.458Z,18.73
2018-07-12T22:09:09.458Z,18.69
2018-07-12T22:10:09.430Z,18.67
2018-07-12T22:11:09.416Z,18.69
2018-07-12T22:12:09.400Z,18.66
2018-07-12T22:13:09.383Z,18.63
2018-07-12T22:14:09.365Z,18.63
2018-07-12T22:15:09.364Z,18.65
2018-07-12T22:16:09.339Z,18.63
2018-07-12T22:17:09.326Z,18.57
2018-07-12T22:18:09.327Z,18.58
2018-07-12T22:19:09.296Z,18.54
2018-07-12T22:20:09.290Z,18.62
2018-07-12T22:21:09.308Z,18.58
2018-07-12T22:22:09.250Z,18.58
2018-07-12T22:23:09.239Z,18.52
2018-07-12T22:24:09.220Z,18.45
2018-07-12T22:25:09.214Z,18.42
2018-07-12T22:26:09.190Z,18.36
2018-07-12T22:27:09.174Z,18.37
2018-07-12T22:28:09.161Z,18.32
2018-07-12T22:29:09.144Z,18.33
2018-07-12T22:30:09.140Z,18.35
2018-07-12T22:31:09.112Z,18.37
2018-07-12T22:32:09.098Z,18.25
2018-07-12T22:33:09.080Z,18.37
2018-07-12T22:34:09.069Z,18.41
2018-07-12T22:35:09.061Z,18.50
2018-07-12T22:36:09.034Z,18.55
2018-07-12T22:37:09.021Z,18.60
2018-07-12T22:38:09.006Z,18.58
2018-07-12T22:39:08.991Z,18.48
2018-07-12T22:40:08.986Z,18.45
2018-07-12T22:41:08.961Z,18.39
2018-07-12T22:42:08.946Z,18.37
2018-07-12T22:43:08.941Z,18.25
2018-07-12T22:44:08.914Z,18.26
2018-07-12T22:45:08.910Z,18.14
2018-07-12T22:46:08.881Z,18.11
2018-07-12T22:47:08.869Z,18.11
2018-07-12T22:48:08.976Z,18.10
2018-07-12T22:49:08.935Z,17.92